createdAt,value
2023-02-02T00:01:55.925Z,3.60
2023-02-02T00:04:34.607Z,3.17
2023-02-02T00:07:05.286Z,4.33
2023-02-02T00:09:33.914Z,4.37
2023-02-02T00:12:02.713Z,2.57
2023-02-02T00:14:30.287Z,3.57
2023-02-02T00:16:58.689Z,3.47
2023-02-02T00:19:33.592Z,2.87
2023-02-02T00:22:01.333Z,4.30
2023-02-02T00:24:29.235Z,3.30
2023-02-02T00:26:59.277Z,2.93
2023-02-02T00:29:30.406Z,4.80
2023-02-02T00:31:58.298Z,3.23
2023-02-02T00:34:26.097Z,5.93
2023-02-02T00:36:53.797Z,3.27
2023-02-02T00:39:26.182Z,4.13
2023-02-02T00:41:54.584Z,8.77
2023-02-02T00:44:40.610Z,35.87
2023-02-02T00:47:08.207Z,37.40
2023-02-02T00:49:35.772Z,14.67
2023-02-02T00:52:03.383Z,5.73
2023-02-02T00:54:31.238Z,5.30
2023-02-02T00:56:58.698Z,5.77
2023-02-02T00:59:26.252Z,6.30
2023-02-02T01:01:53.777Z,7.43
2023-02-02T01:04:21.299Z,6.70
2023-02-02T01:06:48.811Z,4.83
2023-02-02T01:09:16.245Z,6.17
2023-02-02T01:11:43.701Z,6.00
2023-02-02T01:14:11.191Z,5.33
2023-02-02T01:16:38.842Z,4.07
2023-02-02T01:19:06.434Z,2.93
2023-02-02T01:21:34.014Z,6.20
2023-02-02T01:24:01.517Z,3.33
2023-02-02T01:26:29.012Z,5.27
2023-02-02T01:28:56.517Z,3.53
2023-02-02T01:31:24.183Z,2.80
2023-02-02T01:33:52.547Z,4.13
2023-02-02T01:36:23.104Z,4.27
2023-02-02T01:38:51.544Z,4.30
2023-02-02T01:41:23.728Z,4.60
2023-02-02T01:44:02.528Z,5.43
2023-02-02T01:46:36.092Z,4.43
2023-02-02T01:49:13.543Z,3.67
2023-02-02T01:51:45.348Z,6.40
2023-02-02T01:54:30.464Z,5.60
2023-02-02T01:57:03.413Z,5.83
2023-02-02T01:59:33.134Z,5.57
2023-02-02T02:02:01.080Z,9.03
2023-02-02T02:04:31.906Z,5.27
2023-02-02T02:07:03.234Z,4.37
2023-02-02T02:09:31.850Z,3.97
2023-02-02T02:11:59.626Z,3.27
2023-02-02T02:14:46.773Z,2.80
2023-02-02T02:18:03.840Z,3.33
2023-02-02T02:21:11.120Z,8.70
2023-02-02T02:24:54.640Z,4.93
2023-02-02T02:28:06.275Z,4.00
2023-02-02T02:30:33.827Z,3.07
2023-02-02T02:33:26.814Z,4.13
2023-02-02T02:36:29.259Z,2.50
2023-02-02T02:39:16.225Z,6.40
2023-02-02T02:41:52.666Z,4.37
2023-02-02T02:44:22.358Z,2.50
2023-02-02T02:46:51.740Z,2.70
2023-02-02T02:49:20.333Z,3.33
2023-02-02T02:51:53.336Z,5.80
2023-02-02T02:54:36.007Z,4.00
2023-02-02T02:57:53.635Z,5.70
2023-02-02T03:01:01.367Z,6.50
2023-02-02T03:03:46.192Z,9.60
2023-02-02T03:06:34.383Z,10.07
2023-02-02T03:09:09.010Z,7.47
2023-02-02T03:11:36.601Z,4.90
2023-02-02T03:14:07.644Z,4.73
2023-02-02T03:16:36.413Z,7.80
2023-02-02T03:19:04.640Z,7.30
2023-02-02T03:21:33.496Z,6.00
2023-02-02T03:24:01.389Z,11.23
2023-02-02T03:26:29.441Z,11.60
2023-02-02T03:28:57.785Z,9.63
2023-02-02T03:31:27.779Z,7.50
2023-02-02T03:33:56.363Z,4.93
2023-02-02T03:36:24.254Z,5.63
2023-02-02T03:38:51.752Z,5.17
2023-02-02T03:41:19.339Z,4.23
2023-02-02T03:43:46.879Z,8.70
2023-02-02T03:46:14.607Z,4.03
2023-02-02T03:48:42.145Z,6.47
2023-02-02T03:51:12.831Z,5.57
2023-02-02T03:53:44.439Z,3.50
2023-02-02T03:56:12.108Z,8.67
2023-02-02T03:58:39.554Z,5.77
2023-02-02T04:01:11.540Z,6.37
2023-02-02T04:03:39.243Z,4.33
2023-02-02T04:06:07.101Z,3.43
2023-02-02T04:08:34.900Z,6.67
2023-02-02T04:11:02.705Z,5.23
2023-02-02T04:13:30.919Z,6.70
2023-02-02T04:16:02.591Z,4.10
2023-02-02T04:18:30.321Z,6.00
2023-02-02T04:21:02.442Z,4.30
2023-02-02T04:23:30.191Z,4.27
2023-02-02T04:25:59.294Z,6.20
2023-02-02T04:28:27.968Z,5.73
2023-02-02T04:30:56.445Z,9.40
2023-02-02T04:33:27.300Z,6.40
2023-02-02T04:35:55.708Z,5.60
2023-02-02T04:38:23.440Z,4.60
2023-02-02T04:40:50.956Z,5.97
2023-02-02T04:43:18.516Z,6.63
2023-02-02T04:45:46.002Z,7.23
2023-02-02T04:48:13.475Z,8.33
2023-02-02T04:50:40.977Z,5.57
2023-02-02T04:53:08.476Z,5.27
2023-02-02T04:55:39.158Z,3.80
2023-02-02T04:58:07.293Z,7.03
2023-02-02T05:00:34.857Z,4.90
2023-02-02T05:03:02.323Z,5.43
2023-02-02T05:05:29.863Z,4.93
2023-02-02T05:07:57.368Z,3.63
2023-02-02T05:10:24.865Z,4.17
2023-02-02T05:12:56.138Z,5.97
2023-02-02T05:15:24.086Z,6.67
2023-02-02T05:17:51.753Z,7.57
2023-02-02T05:20:19.463Z,9.70
2023-02-02T05:22:50.129Z,9.57
2023-02-02T05:25:18.331Z,11.30
2023-02-02T05:27:47.127Z,9.17
2023-02-02T05:30:15.710Z,10.80
2023-02-02T05:32:43.242Z,9.40
2023-02-02T05:35:11.529Z,6.57
2023-02-02T05:37:39.073Z,7.67
2023-02-02T05:40:07.597Z,7.40
2023-02-02T05:42:35.062Z,8.27
2023-02-02T05:45:03.169Z,7.17
2023-02-02T05:47:30.807Z,7.63
2023-02-02T05:49:58.321Z,13.13
2023-02-02T05:52:26.799Z,4.73
2023-02-02T05:54:54.343Z,3.53
2023-02-02T05:57:21.862Z,3.97
2023-02-02T05:59:49.376Z,4.03
2023-02-02T06:02:16.895Z,2.73
2023-02-02T06:04:44.352Z,5.47
2023-02-02T06:07:12.520Z,3.87
2023-02-02T06:09:40.065Z,5.80
2023-02-02T06:12:07.784Z,12.57
2023-02-02T06:14:36.065Z,11.17
2023-02-02T06:17:03.781Z,13.70
2023-02-02T06:19:31.321Z,8.17
2023-02-02T06:21:58.928Z,8.67
2023-02-02T06:24:26.659Z,5.70
2023-02-02T06:26:54.216Z,5.10
2023-02-02T06:29:21.919Z,6.20
2023-02-02T06:31:49.583Z,5.53
2023-02-02T06:34:17.213Z,7.80
2023-02-02T06:36:44.732Z,8.97
2023-02-02T06:39:12.327Z,5.10
2023-02-02T06:41:40.598Z,9.13
2023-02-02T06:44:09.594Z,6.03
2023-02-02T06:46:37.153Z,8.40
2023-02-02T06:49:04.619Z,4.07
2023-02-02T06:51:32.037Z,4.43
2023-02-02T06:53:59.707Z,5.50
2023-02-02T06:56:27.270Z,7.27
2023-02-02T06:58:54.744Z,8.00
2023-02-02T07:01:22.399Z,8.83
2023-02-02T07:03:51.221Z,4.93
2023-02-02T07:06:22.782Z,4.50
2023-02-02T07:09:01.900Z,11.30
2023-02-02T07:11:40.441Z,7.07
2023-02-02T07:14:11.448Z,6.87
2023-02-02T07:16:38.915Z,4.33
2023-02-02T07:19:06.445Z,9.00
2023-02-02T07:21:35.898Z,6.33
2023-02-02T07:24:06.151Z,7.83
2023-02-02T07:26:37.258Z,4.50
2023-02-02T07:29:05.289Z,6.97
2023-02-02T07:31:35.820Z,8.07
2023-02-02T07:34:07.357Z,7.00
2023-02-02T07:36:35.092Z,6.77
2023-02-02T07:39:04.773Z,6.80
2023-02-02T07:41:34.997Z,9.50
2023-02-02T07:44:02.973Z,10.27
2023-02-02T07:46:31.274Z,6.97
2023-02-02T07:48:58.946Z,7.30
2023-02-02T07:51:26.771Z,7.93
2023-02-02T07:53:58.582Z,6.03
2023-02-02T07:56:28.651Z,6.47
2023-02-02T07:58:57.879Z,6.40
2023-02-02T08:01:28.671Z,7.53
2023-02-02T08:04:03.528Z,7.73
2023-02-02T08:06:36.695Z,7.03
2023-02-02T08:09:07.862Z,6.93
2023-02-02T08:11:37.556Z,4.90
2023-02-02T08:14:08.172Z,4.83
2023-02-02T08:16:38.731Z,8.30
2023-02-02T08:19:06.311Z,9.47
2023-02-02T08:21:35.444Z,4.63
2023-02-02T08:24:05.293Z,11.63
2023-02-02T08:26:33.076Z,8.47
2023-02-02T08:29:05.237Z,9.87
2023-02-02T08:31:42.861Z,13.00
2023-02-02T08:34:14.175Z,5.87
2023-02-02T08:36:42.218Z,7.53
2023-02-02T08:39:14.387Z,5.80
2023-02-02T08:41:41.916Z,8.00
2023-02-02T08:44:12.534Z,6.07
2023-02-02T08:46:41.214Z,9.23
2023-02-02T08:49:14.757Z,10.47
2023-02-02T08:51:43.094Z,3.83
2023-02-02T08:54:13.640Z,4.33
2023-02-02T08:56:41.117Z,6.23
2023-02-02T08:59:08.760Z,5.10
2023-02-02T09:01:36.996Z,5.47
2023-02-02T09:04:08.305Z,4.10
2023-02-02T09:06:41.641Z,7.20
2023-02-02T09:09:13.600Z,2.97
2023-02-02T09:11:42.381Z,7.90
2023-02-02T09:14:13.400Z,4.73
2023-02-02T09:16:42.564Z,3.43
2023-02-02T09:19:12.238Z,3.10
2023-02-02T09:21:40.825Z,3.03
2023-02-02T09:24:12.298Z,9.30
2023-02-02T09:26:40.620Z,6.87
2023-02-02T09:29:13.432Z,4.57
2023-02-02T09:31:40.970Z,18.97
2023-02-02T09:34:14.269Z,4.03
2023-02-02T09:36:44.091Z,9.53
2023-02-02T09:39:15.076Z,6.80
2023-02-02T09:41:42.559Z,8.70
2023-02-02T09:44:27.793Z,5.87
2023-02-02T09:47:09.859Z,16.23
2023-02-02T09:50:06.533Z,19.60
2023-02-02T09:52:48.049Z,4.50
2023-02-02T09:55:41.436Z,7.33
2023-02-02T09:58:30.105Z,4.60
2023-02-02T10:01:36.829Z,8.37
2023-02-02T10:04:20.330Z,5.83
2023-02-02T10:06:58.009Z,9.97
2023-02-02T10:09:43.725Z,6.20
2023-02-02T10:12:47.118Z,4.93
2023-02-02T10:16:01.609Z,7.40
2023-02-02T10:18:57.484Z,7.43
2023-02-02T10:21:41.244Z,8.53
2023-02-02T10:24:22.361Z,6.30
2023-02-02T10:26:56.989Z,7.23
2023-02-02T10:29:24.422Z,5.83
2023-02-02T10:32:22.613Z,5.17
2023-02-02T10:35:38.596Z,6.83
2023-02-02T10:38:24.187Z,6.13
2023-02-02T10:41:08.705Z,9.13
2023-02-02T10:44:02.863Z,4.80
2023-02-02T10:46:41.277Z,14.20
2023-02-02T10:49:24.566Z,2.67
2023-02-02T10:52:11.048Z,1.90
2023-02-02T10:55:04.709Z,8.43
2023-02-02T10:58:02.753Z,4.13
2023-02-02T11:00:44.086Z,3.83
2023-02-02T11:03:13.757Z,12.43
2023-02-02T11:06:00.471Z,7.73
2023-02-02T11:08:46.771Z,5.23
2023-02-02T11:11:42.383Z,4.03
2023-02-02T11:14:10.124Z,5.60
2023-02-02T11:16:43.722Z,6.23
2023-02-02T11:19:26.732Z,7.47
2023-02-02T11:22:03.983Z,7.33
2023-02-02T11:24:49.692Z,7.63
2023-02-02T11:27:38.183Z,3.73
2023-02-02T11:30:24.644Z,10.87
2023-02-02T11:32:52.772Z,8.10
2023-02-02T11:35:27.436Z,13.17
2023-02-02T11:38:09.630Z,10.30
2023-02-02T11:40:47.072Z,8.07
2023-02-02T11:43:41.118Z,6.83
2023-02-02T11:46:24.014Z,7.30
2023-02-02T11:49:12.894Z,14.03
2023-02-02T11:51:40.681Z,4.97
2023-02-02T11:54:24.136Z,4.17
2023-02-02T11:56:57.778Z,6.30
2023-02-02T11:59:43.968Z,4.53
2023-02-02T12:02:19.972Z,6.07
2023-02-02T12:04:50.256Z,4.53
2023-02-02T12:07:32.976Z,5.07
2023-02-02T12:10:11.541Z,10.37
2023-02-02T12:13:15.691Z,6.37
2023-02-02T12:16:01.282Z,4.77
2023-02-02T12:19:11.709Z,9.70
2023-02-02T12:22:26.517Z,7.23
2023-02-02T12:25:15.589Z,10.33
2023-02-02T12:28:17.610Z,4.53
2023-02-02T12:31:22.201Z,6.70
2023-02-02T12:34:27.974Z,6.17
2023-02-02T12:37:36.455Z,4.10
2023-02-02T12:40:39.343Z,7.43
2023-02-02T12:43:29.253Z,8.13
2023-02-02T12:46:37.472Z,7.40
2023-02-02T12:49:26.937Z,8.00
2023-02-02T12:52:41.430Z,9.30
2023-02-02T12:55:33.859Z,3.43
2023-02-02T12:58:33.767Z,8.73
2023-02-02T13:01:07.003Z,10.17
2023-02-02T13:04:07.128Z,4.37
2023-02-02T13:07:16.063Z,5.50
2023-02-02T13:10:05.716Z,4.47
2023-02-02T13:12:44.540Z,5.13
2023-02-02T13:15:24.014Z,10.07
2023-02-02T13:17:58.531Z,2.20
2023-02-02T13:20:39.316Z,7.17
2023-02-02T13:23:20.422Z,7.67
2023-02-02T13:25:59.088Z,4.50
2023-02-02T13:29:11.080Z,3.17
2023-02-02T13:31:55.610Z,7.10
2023-02-02T13:34:41.514Z,5.60
2023-02-02T13:37:37.278Z,6.67
2023-02-02T13:40:32.069Z,5.07
2023-02-02T13:43:43.573Z,9.17
2023-02-02T13:46:48.092Z,14.83
2023-02-02T13:49:30.981Z,13.50
2023-02-02T13:52:25.228Z,7.53
2023-02-02T13:55:05.692Z,5.27
2023-02-02T13:57:52.998Z,9.30
2023-02-02T14:00:20.631Z,10.50
2023-02-02T14:02:56.877Z,10.57
2023-02-02T14:05:30.928Z,9.50
2023-02-02T14:08:16.653Z,6.53
2023-02-02T14:10:58.191Z,6.63
2023-02-02T14:13:55.305Z,9.90
2023-02-02T14:16:46.981Z,9.27
2023-02-02T14:19:35.467Z,8.70
2023-02-02T14:22:19.325Z,12.47
2023-02-02T14:24:50.556Z,4.47
2023-02-02T14:27:18.799Z,49.77
2023-02-02T14:29:55.778Z,31.73
2023-02-02T14:32:28.413Z,31.97
2023-02-02T14:35:13.815Z,23.30
2023-02-02T14:38:10.375Z,6.80
2023-02-02T14:41:53.347Z,18.23
2023-02-02T14:44:24.102Z,7.20
2023-02-02T14:47:01.885Z,5.67
2023-02-02T14:49:35.616Z,5.33
2023-02-02T14:52:05.328Z,6.93
2023-02-02T14:54:42.263Z,8.30
2023-02-02T14:57:29.039Z,10.83
2023-02-02T15:00:01.106Z,13.47
2023-02-02T15:02:44.022Z,47.33
2023-02-02T15:05:29.483Z,38.73
2023-02-02T15:08:25.602Z,16.33
2023-02-02T15:11:02.142Z,15.10
2023-02-02T15:13:37.719Z,12.23
2023-02-02T15:16:24.367Z,9.20
2023-02-02T15:19:14.281Z,9.13
2023-02-02T15:21:43.466Z,11.33
2023-02-02T15:24:25.095Z,10.77
2023-02-02T15:26:54.708Z,8.63
2023-02-02T15:29:42.650Z,7.43
2023-02-02T15:32:22.310Z,12.13
2023-02-02T15:34:54.802Z,14.53
2023-02-02T15:37:30.308Z,16.73
2023-02-02T15:40:01.605Z,20.63
2023-02-02T15:43:02.458Z,12.07
2023-02-02T15:45:43.400Z,14.87
2023-02-02T15:48:26.837Z,10.93
2023-02-02T15:50:56.044Z,6.13
2023-02-02T15:53:34.108Z,6.10
2023-02-02T15:56:29.928Z,3.60
2023-02-02T15:59:01.196Z,4.20
2023-02-02T16:01:33.744Z,4.60
2023-02-02T16:04:17.815Z,3.63
2023-02-02T16:06:46.224Z,6.50
2023-02-02T16:09:35.829Z,4.27
2023-02-02T16:12:08.443Z,6.20
2023-02-02T16:14:40.566Z,3.20
2023-02-02T16:17:22.241Z,2.70
2023-02-02T16:20:09.865Z,5.03
2023-02-02T16:22:40.093Z,5.80
2023-02-02T16:25:15.945Z,5.23
2023-02-02T16:27:47.281Z,3.77
2023-02-02T16:30:29.516Z,4.27
2023-02-02T16:32:58.467Z,3.33
2023-02-02T16:35:38.300Z,6.93
2023-02-02T16:38:34.830Z,4.63
2023-02-02T16:41:26.619Z,5.90
2023-02-02T16:43:55.549Z,19.57
2023-02-02T16:46:51.663Z,10.70
2023-02-02T16:49:26.187Z,27.27
2023-02-02T16:52:17.378Z,9.70
2023-02-02T16:54:57.066Z,49.20
2023-02-02T16:57:33.975Z,59.93
2023-02-02T17:00:07.415Z,41.87
2023-02-02T17:02:40.525Z,15.60
2023-02-02T17:05:22.217Z,14.67
2023-02-02T17:08:04.362Z,8.93
2023-02-02T17:10:36.461Z,11.03
2023-02-02T17:13:33.546Z,7.13
2023-02-02T17:16:03.415Z,10.47
2023-02-02T17:18:31.982Z,16.27
2023-02-02T17:21:07.925Z,7.57
2023-02-02T17:23:41.026Z,9.13
2023-02-02T17:26:12.331Z,8.90
2023-02-02T17:28:42.352Z,17.13
2023-02-02T17:31:15.135Z,20.17
2023-02-02T17:33:46.077Z,14.80
2023-02-02T17:36:14.427Z,12.27
2023-02-02T17:38:42.184Z,12.00
2023-02-02T17:41:14.530Z,8.93
2023-02-02T17:43:43.232Z,7.03
2023-02-02T17:46:15.946Z,8.17
2023-02-02T17:48:44.824Z,10.93
2023-02-02T17:51:16.859Z,8.33
2023-02-02T17:53:46.457Z,8.87
2023-02-02T17:56:14.143Z,6.30
2023-02-02T17:58:42.908Z,6.40
2023-02-02T18:01:12.823Z,12.20
2023-02-02T18:03:44.943Z,2.20
2023-02-02T18:06:13.469Z,4.40
2023-02-02T18:08:42.349Z,3.87
2023-02-02T18:11:13.824Z,3.63
2023-02-02T18:13:43.541Z,3.73
2023-02-02T18:16:13.624Z,4.57
2023-02-02T18:19:03.307Z,5.33
2023-02-02T18:21:34.857Z,4.37
2023-02-02T18:24:02.459Z,12.10
2023-02-02T18:26:31.389Z,12.63
2023-02-02T18:29:00.475Z,12.50
2023-02-02T18:31:28.175Z,5.77
2023-02-02T18:33:57.292Z,6.90
2023-02-02T18:36:25.097Z,11.03
2023-02-02T18:38:54.002Z,27.03
2023-02-02T18:41:22.917Z,15.13
2023-02-02T18:43:53.041Z,5.73
2023-02-02T18:46:21.342Z,7.63
2023-02-02T18:48:49.915Z,5.63
2023-02-02T18:51:26.244Z,5.27
2023-02-02T18:54:00.289Z,4.30
2023-02-02T18:56:29.301Z,3.13
2023-02-02T18:59:02.351Z,4.33
2023-02-02T19:01:34.785Z,2.73
2023-02-02T19:04:25.228Z,2.67
2023-02-02T19:07:11.223Z,3.57
2023-02-02T19:09:38.895Z,4.80
2023-02-02T19:12:16.955Z,2.03
2023-02-02T19:14:45.796Z,2.13
2023-02-02T19:17:28.417Z,4.47
2023-02-02T19:20:04.548Z,2.40
2023-02-02T19:22:39.082Z,2.57
2023-02-02T19:25:13.372Z,3.80
2023-02-02T19:27:42.407Z,5.17
2023-02-02T19:30:22.814Z,2.30
2023-02-02T19:32:50.665Z,2.73
2023-02-02T19:35:34.353Z,4.70
2023-02-02T19:38:07.806Z,3.10
2023-02-02T19:40:38.984Z,2.77
2023-02-02T19:43:28.308Z,2.37
2023-02-02T19:46:00.229Z,5.53
2023-02-02T19:48:40.148Z,7.77
2023-02-02T19:51:48.672Z,3.00
2023-02-02T19:54:36.503Z,4.90
2023-02-02T19:57:24.823Z,5.37
2023-02-02T19:59:55.246Z,5.83
2023-02-02T20:03:17.831Z,5.90
2023-02-02T20:05:50.263Z,6.20
2023-02-02T20:11:40.108Z,5.63
2023-02-02T20:14:21.537Z,3.97
2023-02-02T20:17:29.261Z,3.90
2023-02-02T20:19:57.419Z,4.20
2023-02-02T20:22:28.818Z,5.10
2023-02-02T20:25:07.895Z,3.80
2023-02-02T20:27:35.863Z,5.43
2023-02-02T20:30:46.919Z,4.53
2023-02-02T20:33:27.423Z,5.80
2023-02-02T20:35:58.928Z,4.53
2023-02-02T20:38:37.674Z,3.90
2023-02-02T20:41:07.188Z,4.93
2023-02-02T20:43:37.389Z,3.27
2023-02-02T20:46:05.210Z,4.03
2023-02-02T20:48:37.031Z,9.97
2023-02-02T20:51:07.749Z,5.10
2023-02-02T20:53:35.807Z,4.40
2023-02-02T20:56:09.364Z,2.73
2023-02-02T20:58:37.994Z,3.00
2023-02-02T21:01:11.244Z,2.37
2023-02-02T21:03:39.354Z,2.03
2023-02-02T21:06:09.139Z,1.97
2023-02-02T21:08:40.674Z,3.60
2023-02-02T21:11:15.802Z,2.90
2023-02-02T21:13:43.960Z,2.07
2023-02-02T21:16:14.991Z,3.03
2023-02-02T21:18:47.426Z,2.20
2023-02-02T21:21:16.498Z,3.40
2023-02-02T21:23:47.297Z,1.70
2023-02-02T21:26:24.651Z,3.17
2023-02-02T21:28:52.155Z,2.70
2023-02-02T21:31:20.162Z,3.47
2023-02-02T21:33:50.682Z,2.60
2023-02-02T21:36:44.258Z,4.67
2023-02-02T21:39:29.943Z,3.80
2023-02-02T21:42:09.223Z,3.80
2023-02-02T21:44:46.792Z,3.40
2023-02-02T21:47:37.302Z,3.70
2023-02-02T21:50:26.689Z,2.27
2023-02-02T21:53:21.830Z,3.67
2023-02-02T21:55:59.843Z,3.47
2023-02-02T21:58:42.104Z,2.87
2023-02-02T22:01:34.273Z,3.13
2023-02-02T22:04:01.949Z,2.50
2023-02-02T22:06:36.254Z,3.27
2023-02-02T22:09:12.866Z,2.40
2023-02-02T22:11:50.742Z,2.70
2023-02-02T22:14:43.234Z,3.87
2023-02-02T22:17:24.186Z,5.40
2023-02-02T22:20:10.314Z,3.23
2023-02-02T22:22:47.019Z,2.97
2023-02-02T22:25:17.375Z,2.40
2023-02-02T22:27:53.486Z,2.83
2023-02-02T22:30:27.373Z,3.07
2023-02-02T22:32:56.475Z,2.63
2023-02-02T22:35:23.934Z,2.33
2023-02-02T22:37:51.656Z,2.57
2023-02-02T22:40:22.580Z,2.50
2023-02-02T22:42:58.650Z,2.90
2023-02-02T22:45:26.625Z,2.10
2023-02-02T22:47:54.778Z,1.87
2023-02-02T22:50:26.208Z,1.93
2023-02-02T22:52:54.162Z,2.10
2023-02-02T22:55:22.152Z,2.27
2023-02-02T22:57:49.825Z,2.10
2023-02-02T23:00:23.558Z,2.07
2023-02-02T23:02:51.430Z,2.43
2023-02-02T23:05:20.967Z,2.60
2023-02-02T23:07:49.723Z,2.77
2023-02-02T23:10:26.643Z,1.97
2023-02-02T23:12:58.717Z,3.07
2023-02-02T23:15:26.919Z,2.73
2023-02-02T23:17:55.465Z,2.00
2023-02-02T23:20:23.079Z,2.40
2023-02-02T23:22:51.420Z,2.57
2023-02-02T23:25:19.119Z,1.83
2023-02-02T23:27:46.748Z,2.80
2023-02-02T23:30:15.605Z,1.80
2023-02-02T23:32:43.170Z,2.97
2023-02-02T23:35:11.264Z,2.20
2023-02-02T23:37:38.992Z,2.30
2023-02-02T23:40:08.605Z,2.57
2023-02-02T23:42:37.709Z,2.50
2023-02-02T23:45:07.426Z,2.60
2023-02-02T23:47:37.100Z,3.77
2023-02-02T23:50:07.871Z,2.27
2023-02-02T23:52:36.567Z,3.97
2023-02-02T23:55:05.410Z,3.70
2023-02-02T23:57:33.902Z,3.53
